Aeroporto :
LOGIN :

Iscrizione | Disclaimer

   EN    FR    IT 

 










Sommario :    VFR   VFR Marginale   IFR   IFR Intensivo   IFR Molto Intensivo
Visibilità : 
Base nubi : 
>= 8 km
>= 3000ft
5 / 8 km
1000 / 3000 ft
1500m / 5 km
500 / 1000 ft
800 / 1500m
200 / 500 ft
< 800m
< 200 ft
Simboli :   Temporali  Nebbia  Neve Forte  Precipitazioni Forti  Vento > 20 kt
SIGMETs :   Varie  Temporali  Ghiacco  Turbolenza  Onda orograficha  Ceneri Vulcaniche






- Altitudine del aeroporto : 202 ft
- Codice IATA : LGW


EGKK - London Gatwick

ULTIMO METAR :
  • 082020Z 24013KT CAVOK 07/02 Q0997

METARs OBSOLETI :
  • 081950Z 23012KT CAVOK 07/03 Q0997
  • 081920Z 24013KT CAVOK 07/03 Q0998
  • 081850Z 23014KT 9999 FEW032 07/03 Q0998
  • 081820Z 23013KT 9999 FEW038 07/03 Q0999
  • 081750Z 23012KT CAVOK 07/03 Q0999

TAF TAF EGKK
Valido dal 08 a 18 ore il 10 a 00 ore UTC


081700Z 0818/0924 25015G25KT 9999 SCT025
TEMPO 0818/0906 7000 SHRA
PROB30
TEMPO 0818/0820 26020G35KT
PROB30
TEMPO 0900/0904 26020G35KT
BECMG 0904/0907 32015G25KT
BECMG 0912/0914 32012KT
BECMG 0918/0921 26006KT



MetMap, La meteo Aeronautica in un colpo d'occhio ! - Copyright ORBIFLY Dicembre 2007 - Disclaimer

ORBIFLY MET'MAP TEAM :

Programmazione e sviluppo : Alexandra Zaïnal
Concezione : Baudouin d'Aumeries
Aiuto per la programmazione : Marc-Olivier Méhu
Supporto tecnico e logistico : Manuel Goepfert
Aiuto per la traduzione : Arnaldo La Scala

Contatto : metmap@orbifly.com




FONTI E CREDITI :

   NOAA